Time;durP1;ratioP1;P1;durP2;ratioP2;P2;SDS_P1;SDS_P2;PMS_P1;PMS_P2;Temp;Humidity;BMP_temperature;BMP_pressure;BME280_temperature;BME280_humidity;BME280_pressure;Samples;Min_cycle;Max_cycle;Signal;HPM_P1;HPM_P2
2021/11/18 00:01:19;;;;;;;6.38;3.38;;;14.80;99.90;;;;;;5091420;27;20386;-61
2021/11/18 00:03:47;;;;;;;8.45;2.60;;;14.80;99.90;;;;;;5126440;27;20513;-61
2021/11/18 00:06:16;;;;;;;12.18;3.50;;;14.80;99.90;;;;;;5126064;27;20054;-61
2021/11/18 00:08:44;;;;;;;5.93;3.70;;;14.80;99.90;;;;;;5091214;27;20100;-61
2021/11/18 00:11:14;;;;;;;6.13;3.53;;;14.80;99.90;;;;;;5117965;27;20093;-61
2021/11/18 00:13:46;;;;;;;9.52;3.70;;;14.70;99.90;;;;;;5120543;27;20044;-61
2021/11/18 00:16:14;;;;;;;7.07;3.05;;;14.70;99.90;;;;;;5127713;27;20031;-61
2021/11/18 00:18:43;;;;;;;7.28;3.42;;;14.70;99.90;;;;;;5093196;27;20036;-62
2021/11/18 00:21:17;;;;;;;5.70;3.13;;;14.70;99.90;;;;;;5095540;28;20043;-61
2021/11/18 00:23:49;;;;;;;13.65;3.28;;;14.70;99.90;;;;;;5101715;27;20051;-61
2021/11/18 00:26:18;;;;;;;11.07;3.40;;;14.80;99.90;;;;;;5115541;27;20047;-61
2021/11/18 00:28:46;;;;;;;8.27;4.03;;;14.70;99.90;;;;;;5088735;28;20055;-61
2021/11/18 00:31:17;;;;;;;13.18;3.92;;;14.70;99.90;;;;;;5106382;27;20505;-61
2021/11/18 00:33:46;;;;;;;7.03;3.95;;;14.70;99.90;;;;;;5124517;27;20466;-61
2021/11/18 00:36:15;;;;;;;5.47;3.08;;;14.70;99.90;;;;;;5087802;27;20043;-61
2021/11/18 00:38:44;;;;;;;9.05;4.10;;;14.70;99.90;;;;;;5102490;27;20398;-61
2021/11/18 00:41:13;;;;;;;7.82;3.97;;;14.80;99.90;;;;;;5103951;28;20101;-61
2021/11/18 00:43:42;;;;;;;10.75;3.00;;;14.80;99.90;;;;;;5094391;27;20093;-61
2021/11/18 00:46:10;;;;;;;7.38;3.28;;;14.80;99.90;;;;;;5090662;27;20445;-61
2021/11/18 00:48:42;;;;;;;7.18;3.30;;;14.80;99.90;;;;;;5076191;27;20508;-61
2021/11/18 00:51:16;;;;;;;17.23;4.53;;;14.80;99.90;;;;;;5092048;27;20040;-61
2021/11/18 00:53:47;;;;;;;6.25;3.25;;;14.80;99.90;;;;;;5122301;27;20042;-61
2021/11/18 00:56:22;;;;;;;5.63;3.47;;;14.80;99.90;;;;;;5092153;27;20420;-61
2021/11/18 00:58:53;;;;;;;12.70;4.05;;;14.80;99.90;;;;;;5118986;27;20062;-62
2021/11/18 01:01:24;;;;;;;12.88;4.28;;;14.80;99.90;;;;;;5086603;28;20040;-63
2021/11/18 01:03:53;;;;;;;8.02;4.13;;;14.80;99.90;;;;;;5124502;27;20112;-62
2021/11/18 01:06:20;;;;;;;6.65;3.75;;;14.80;99.90;;;;;;5085686;27;20043;-61
2021/11/18 01:08:49;;;;;;;7.55;3.53;;;14.80;99.90;;;;;;5104226;27;20081;-62
2021/11/18 01:11:21;;;;;;;11.45;5.00;;;14.80;99.90;;;;;;5081535;27;20110;-61
2021/11/18 01:13:51;;;;;;;7.45;3.17;;;14.80;99.90;;;;;;5102778;28;20036;-61
2021/11/18 01:16:24;;;;;;;7.05;3.90;;;14.80;99.90;;;;;;5114368;27;20036;-63
2021/11/18 01:18:52;;;;;;;7.95;4.10;;;14.80;99.90;;;;;;5118778;27;20083;-63
2021/11/18 01:21:22;;;;;;;12.10;5.20;;;14.80;99.90;;;;;;5087797;27;20047;-62
2021/11/18 01:23:50;;;;;;;8.65;3.65;;;14.80;99.90;;;;;;5096117;27;20035;-62
2021/11/18 01:26:26;;;;;;;8.75;4.38;;;14.80;99.90;;;;;;5118404;27;20135;-62
2021/11/18 01:28:54;;;;;;;7.55;3.78;;;14.90;99.90;;;;;;5110721;27;20032;-61
2021/11/18 01:31:22;;;;;;;6.32;4.07;;;14.90;99.90;;;;;;5101578;27;20031;-64
2021/11/18 01:33:57;;;;;;;13.88;4.57;;;14.80;99.90;;;;;;5091915;28;20062;-62
2021/11/18 01:36:27;;;;;;;8.45;5.22;;;14.90;99.90;;;;;;5125712;27;20039;-62
2021/11/18 01:39:06;;;;;;;10.90;4.45;;;14.80;99.90;;;;;;5108595;28;20409;-62
2021/11/18 01:41:37;;;;;;;5.20;3.42;;;14.80;99.90;;;;;;5113578;28;20044;-61
2021/11/18 01:44:18;;;;;;;7.83;4.47;;;14.80;99.90;;;;;;5096476;28;20043;-62
2021/11/18 01:46:47;;;;;;;8.30;4.18;;;14.80;99.90;;;;;;5079724;28;20284;-62
2021/11/18 01:49:20;;;;;;;11.18;4.97;;;14.80;99.90;;;;;;5113462;28;20043;-62
2021/11/18 01:51:53;;;;;;;8.93;4.63;;;14.80;99.90;;;;;;5113527;28;20398;-61
2021/11/18 01:54:26;;;;;;;9.98;3.78;;;14.80;99.90;;;;;;5079691;28;20047;-61
2021/11/18 01:56:55;;;;;;;11.15;5.03;;;14.90;99.90;;;;;;5096477;28;20494;-61
2021/11/18 01:59:27;;;;;;;13.60;4.80;;;14.90;99.90;;;;;;5096101;28;20055;-61
2021/11/18 02:02:17;;;;;;;11.43;4.22;;;14.90;99.90;;;;;;5085336;28;20043;-62
2021/11/18 02:05:23;;;;;;;13.02;4.45;;;14.90;99.90;;;;;;5083946;28;20408;-61
2021/11/18 02:08:03;;;;;;;8.57;5.43;;;14.90;99.90;;;;;;5096199;28;20538;-62
2021/11/18 02:10:42;;;;;;;8.35;4.55;;;14.90;99.90;;;;;;5114377;28;20543;-62
2021/11/18 02:13:13;;;;;;;7.20;4.43;;;14.90;99.90;;;;;;5096193;28;20421;-62
2021/11/18 02:15:50;;;;;;;8.00;4.43;;;14.90;99.90;;;;;;5114085;28;20516;-62
2021/11/18 02:18:21;;;;;;;9.93;5.45;;;14.90;99.90;;;;;;5078385;28;20043;-61
2021/11/18 02:21:00;;;;;;;10.98;4.93;;;14.90;99.90;;;;;;5079445;28;20442;-61
2021/11/18 02:23:32;;;;;;;10.77;4.57;;;14.90;99.90;;;;;;5079016;28;20048;-61
2021/11/18 02:26:00;;;;;;;10.15;5.40;;;14.90;99.90;;;;;;5079459;28;20497;-61
2021/11/18 02:28:32;;;;;;;6.78;4.10;;;14.90;99.90;;;;;;5079305;28;20124;-62
2021/11/18 02:31:02;;;;;;;6.78;4.45;;;14.90;99.90;;;;;;5095730;28;20038;-62
2021/11/18 02:33:31;;;;;;;9.10;4.65;;;15.00;99.90;;;;;;5062722;28;20055;-61
2021/11/18 02:36:00;;;;;;;9.70;4.32;;;15.00;99.90;;;;;;5079173;28;20036;-62
2021/11/18 02:38:27;;;;;;;8.35;4.72;;;15.00;99.90;;;;;;5079199;28;20032;-61
2021/11/18 02:41:04;;;;;;;13.45;5.63;;;15.00;99.90;;;;;;5095922;28;20031;-62
2021/11/18 02:43:32;;;;;;;17.27;5.18;;;14.90;99.90;;;;;;5078513;28;20044;-62
2021/11/18 02:45:59;;;;;;;8.40;4.30;;;14.90;99.90;;;;;;5079064;28;20048;-61
2021/11/18 02:48:28;;;;;;;12.02;4.90;;;14.90;99.90;;;;;;5095921;28;20047;-62
2021/11/18 02:50:58;;;;;;;8.30;4.95;;;14.90;99.90;;;;;;5079091;28;20062;-62
2021/11/18 02:53:28;;;;;;;10.63;6.10;;;14.90;99.90;;;;;;5095663;28;20054;-61
2021/11/18 02:55:57;;;;;;;9.02;4.55;;;14.90;99.90;;;;;;5095545;28;20075;-62
2021/11/18 02:58:25;;;;;;;10.43;5.13;;;15.00;99.90;;;;;;5078896;28;20039;-62
2021/11/18 03:01:01;;;;;;;16.63;5.10;;;15.00;99.90;;;;;;5078959;28;20389;-61
2021/11/18 03:03:29;;;;;;;10.15;4.38;;;15.10;99.90;;;;;;5079328;28;20093;-62
2021/11/18 03:06:00;;;;;;;11.75;5.97;;;15.10;99.90;;;;;;5079589;28;20036;-62
2021/11/18 03:08:28;;;;;;;9.48;4.88;;;15.10;99.90;;;;;;5078766;28;20419;-62
2021/11/18 03:10:59;;;;;;;11.60;5.68;;;15.00;99.90;;;;;;5078838;28;20435;-61
2021/11/18 03:13:30;;;;;;;9.95;5.70;;;15.00;99.90;;;;;;5099179;28;20115;-62
2021/11/18 03:16:03;;;;;;;8.93;4.15;;;15.00;99.90;;;;;;5099801;28;20040;-62
2021/11/18 03:18:31;;;;;;;9.00;4.80;;;15.00;99.90;;;;;;5082355;28;20464;-62
2021/11/18 03:21:00;;;;;;;8.68;4.80;;;15.00;99.90;;;;;;5115622;28;20047;-61
2021/11/18 03:23:28;;;;;;;11.35;5.63;;;15.00;99.90;;;;;;5133917;28;20047;-61
2021/11/18 03:26:00;;;;;;;13.07;4.90;;;14.90;99.90;;;;;;5098907;28;20146;-62
2021/11/18 03:28:29;;;;;;;9.68;5.63;;;14.80;99.90;;;;;;5081650;28;20392;-62
2021/11/18 03:30:59;;;;;;;9.25;5.85;;;14.80;99.90;;;;;;5085471;27;20137;-62
2021/11/18 03:33:35;;;;;;;8.80;5.70;;;14.80;99.90;;;;;;5103253;27;20047;-62
2021/11/18 03:36:05;;;;;;;9.05;5.97;;;14.80;99.90;;;;;;5102900;27;20043;-62
2021/11/18 03:38:34;;;;;;;10.10;5.93;;;14.80;99.90;;;;;;5102701;27;20076;-62
2021/11/18 03:41:20;;;;;;;9.57;4.45;;;14.80;99.90;;;;;;5105047;27;20080;-62
2021/11/18 03:43:52;;;;;;;8.85;4.72;;;14.90;99.90;;;;;;5102682;27;20114;-62
2021/11/18 03:46:26;;;;;;;11.82;6.13;;;14.90;99.90;;;;;;5102791;27;20063;-61
2021/11/18 03:48:54;;;;;;;10.05;5.82;;;14.90;99.90;;;;;;5085901;27;20481;-62
2021/11/18 03:51:22;;;;;;;13.82;6.45;;;14.90;99.90;;;;;;5102468;27;20038;-62
2021/11/18 03:53:53;;;;;;;12.02;6.85;;;14.90;99.90;;;;;;5102894;27;20485;-61
2021/11/18 03:56:26;;;;;;;10.40;5.35;;;15.00;99.90;;;;;;5085789;27;20138;-61
2021/11/18 03:58:55;;;;;;;9.55;6.22;;;14.90;99.90;;;;;;5102076;27;20066;-61
2021/11/18 04:01:23;;;;;;;7.78;5.25;;;14.90;99.90;;;;;;5119337;27;20114;-62
2021/11/18 04:03:54;;;;;;;8.30;4.97;;;14.90;99.90;;;;;;5085359;27;20047;-62
2021/11/18 04:06:23;;;;;;;7.40;4.82;;;14.90;99.90;;;;;;5085760;27;20051;-61
2021/11/18 04:09:04;;;;;;;8.75;5.55;;;14.90;99.90;;;;;;5087153;27;20039;-62
2021/11/18 04:11:32;;;;;;;7.82;4.80;;;14.90;99.90;;;;;;5119042;27;20047;-61
2021/11/18 04:14:05;;;;;;;8.60;4.90;;;14.90;99.90;;;;;;5102802;27;20075;-63
2021/11/18 04:16:33;;;;;;;7.47;3.15;;;14.80;99.90;;;;;;5101537;27;20099;-61
2021/11/18 04:19:04;;;;;;;6.35;2.83;;;14.60;99.90;;;;;;5102703;27;20063;-61
2021/11/18 04:21:34;;;;;;;3.58;1.48;;;14.50;99.90;;;;;;5101918;27;20043;-61
2021/11/18 04:24:05;;;;;;;3.33;1.83;;;14.40;99.90;;;;;;5118471;27;20046;-61
2021/11/18 04:26:35;;;;;;;3.03;1.48;;;14.20;99.90;;;;;;5101627;27;20039;-61
2021/11/18 04:29:06;;;;;;;2.95;1.58;;;14.20;99.90;;;;;;5086017;27;20066;-61
2021/11/18 04:31:35;;;;;;;2.17;1.40;;;14.20;99.90;;;;;;5102049;27;20043;-61
2021/11/18 04:34:03;;;;;;;3.13;1.98;;;14.20;99.90;;;;;;5101764;27;20050;-62
2021/11/18 04:36:31;;;;;;;7.78;1.63;;;14.30;99.90;;;;;;5118238;27;20088;-62
2021/11/18 04:38:59;;;;;;;3.95;1.77;;;14.30;99.90;;;;;;5101642;27;20088;-61
2021/11/18 04:41:28;;;;;;;4.63;2.70;;;14.40;99.90;;;;;;5084001;27;20048;-61
2021/11/18 04:43:56;;;;;;;5.30;2.95;;;14.40;99.90;;;;;;5101351;27;20042;-61
2021/11/18 04:46:25;;;;;;;4.10;2.47;;;14.40;99.90;;;;;;5084453;27;20562;-61
2021/11/18 04:48:54;;;;;;;5.75;2.78;;;14.40;99.90;;;;;;5084881;27;20435;-61
2021/11/18 04:51:24;;;;;;;5.68;3.17;;;14.40;99.90;;;;;;5136298;27;20066;-61
2021/11/18 04:53:52;;;;;;;6.05;3.03;;;14.50;99.90;;;;;;5118156;27;20043;-61
2021/11/18 04:56:23;;;;;;;5.85;3.60;;;14.50;99.90;;;;;;5101495;27;20058;-61
2021/11/18 04:58:55;;;;;;;5.85;3.55;;;14.50;99.90;;;;;;5117999;27;20374;-61
2021/11/18 05:01:25;;;;;;;7.05;3.67;;;14.50;99.90;;;;;;5118187;27;20043;-61
2021/11/18 05:03:54;;;;;;;5.18;3.28;;;14.50;99.90;;;;;;5117797;27;20074;-61
2021/11/18 05:06:22;;;;;;;7.00;3.33;;;14.50;99.90;;;;;;5084254;27;20489;-61
2021/11/18 05:08:51;;;;;;;10.68;3.45;;;14.40;99.90;;;;;;5117954;27;20418;-61
2021/11/18 05:11:19;;;;;;;8.25;3.05;;;14.40;99.90;;;;;;5101035;27;20143;-62
2021/11/18 05:13:46;;;;;;;6.55;3.08;;;14.30;99.90;;;;;;5100523;27;20072;-61
2021/11/18 05:16:16;;;;;;;3.88;2.55;;;14.30;99.90;;;;;;5083870;27;20054;-61
2021/11/18 05:18:45;;;;;;;5.03;2.90;;;14.30;99.90;;;;;;5117651;27;20035;-61
2021/11/18 05:21:16;;;;;;;5.50;2.42;;;14.30;99.90;;;;;;5100802;27;20047;-61
2021/11/18 05:23:44;;;;;;;5.18;2.28;;;14.20;99.90;;;;;;5083798;27;20055;-62
2021/11/18 05:26:14;;;;;;;6.18;2.90;;;14.20;99.90;;;;;;5083629;27;20076;-62
2021/11/18 05:28:44;;;;;;;9.98;2.90;;;14.20;99.90;;;;;;5100983;27;20114;-61
2021/11/18 05:31:15;;;;;;;13.68;3.60;;;14.20;99.90;;;;;;5083857;27;20047;-62
2021/11/18 05:33:56;;;;;;;5.82;2.40;;;14.20;99.90;;;;;;5102482;27;20050;-62
2021/11/18 05:36:31;;;;;;;4.53;2.08;;;14.30;99.90;;;;;;5101571;27;20123;-61
2021/11/18 05:38:59;;;;;;;6.38;2.58;;;14.30;99.90;;;;;;5100456;27;20047;-61
2021/11/18 05:41:31;;;;;;;5.60;2.22;;;14.20;99.90;;;;;;5100890;27;20039;-62
2021/11/18 05:44:02;;;;;;;3.70;1.90;;;14.30;99.90;;;;;;5083338;27;20047;-61
2021/11/18 05:46:34;;;;;;;5.65;2.38;;;14.30;99.90;;;;;;5117310;27;20499;-61
2021/11/18 05:49:05;;;;;;;5.65;2.13;;;14.20;99.90;;;;;;5116997;27;20027;-61
2021/11/18 05:51:35;;;;;;;6.00;2.25;;;14.30;99.90;;;;;;5117130;27;20035;-61
2021/11/18 05:54:08;;;;;;;6.32;2.67;;;14.30;99.90;;;;;;5082196;27;20054;-62
2021/11/18 05:56:38;;;;;;;7.90;3.13;;;14.30;99.90;;;;;;5083589;27;20055;-61
2021/11/18 05:59:08;;;;;;;5.40;2.88;;;14.30;99.90;;;;;;5100388;27;20054;-62
2021/11/18 06:01:37;;;;;;;8.85;3.10;;;14.30;99.90;;;;;;5099895;27;20039;-61
2021/11/18 06:04:07;;;;;;;4.85;2.13;;;14.30;99.90;;;;;;5099603;27;20046;-61
2021/11/18 06:06:42;;;;;;;3.20;2.22;;;14.30;99.90;;;;;;5083848;27;20379;-62
2021/11/18 06:09:09;;;;;;;4.28;2.00;;;14.30;99.90;;;;;;5116640;27;20070;-62
2021/11/18 06:11:41;;;;;;;5.13;1.95;;;14.40;99.90;;;;;;5100113;27;20039;-61
2021/11/18 06:14:15;;;;;;;5.57;2.43;;;14.40;99.90;;;;;;5116652;27;20046;-61
2021/11/18 06:16:45;;;;;;;4.55;2.35;;;14.40;99.90;;;;;;5099477;27;20284;-61
2021/11/18 06:19:14;;;;;;;2.72;1.60;;;14.40;99.90;;;;;;5082394;27;20057;-62
2021/11/18 06:21:46;;;;;;;4.20;2.78;;;14.40;99.90;;;;;;5099594;27;20512;-61
2021/11/18 06:24:16;;;;;;;4.60;2.53;;;14.40;99.90;;;;;;5116304;27;20100;-61
2021/11/18 06:26:50;;;;;;;5.13;2.78;;;14.40;99.90;;;;;;5082851;28;20054;-61
2021/11/18 06:29:24;;;;;;;3.53;2.88;;;14.40;99.90;;;;;;5083559;28;20071;-61
2021/11/18 06:31:55;;;;;;;5.65;2.53;;;14.40;99.90;;;;;;5099770;27;20035;-61
2021/11/18 06:34:24;;;;;;;3.72;2.10;;;14.40;99.90;;;;;;5115779;27;20489;-62
2021/11/18 06:36:54;;;;;;;2.58;1.55;;;14.40;99.90;;;;;;5083183;28;20141;-61
2021/11/18 06:39:37;;;;;;;2.85;1.38;;;14.40;99.90;;;;;;5108769;28;20067;-61
2021/11/18 06:42:09;;;;;;;3.45;1.10;;;14.40;99.90;;;;;;5098902;28;20054;-62
2021/11/18 06:44:39;;;;;;;2.83;1.33;;;14.50;99.90;;;;;;5115932;28;20039;-61
2021/11/18 06:47:09;;;;;;;1.80;1.38;;;14.50;99.90;;;;;;5116167;28;20046;-63
2021/11/18 06:49:44;;;;;;;3.65;1.67;;;14.60;99.90;;;;;;5083928;28;20460;-61
2021/11/18 06:52:12;;;;;;;4.93;1.30;;;14.50;99.90;;;;;;5115970;28;20039;-61
2021/11/18 06:54:39;;;;;;;1.70;1.10;;;14.50;99.90;;;;;;5099127;28;20047;-62
2021/11/18 06:57:08;;;;;;;2.78;1.52;;;14.50;99.90;;;;;;5115801;28;20059;-61
2021/11/18 06:59:36;;;;;;;2.70;1.40;;;14.50;99.90;;;;;;5116300;28;20047;-62
2021/11/18 07:02:04;;;;;;;3.97;1.83;;;14.50;99.90;;;;;;5115887;28;20439;-62
2021/11/18 07:04:33;;;;;;;3.17;2.08;;;14.50;99.90;;;;;;5116404;27;20032;-62
2021/11/18 07:07:01;;;;;;;4.13;1.80;;;14.50;99.90;;;;;;5086134;27;20520;-61
2021/11/18 07:09:29;;;;;;;3.20;2.10;;;14.50;99.90;;;;;;5085739;27;20051;-61
2021/11/18 07:12:16;;;;;;;3.55;2.25;;;14.50;99.90;;;;;;5105350;27;20035;-61
2021/11/18 07:14:47;;;;;;;4.90;1.95;;;14.40;99.90;;;;;;5102998;27;20075;-61
2021/11/18 07:17:16;;;;;;;3.60;2.45;;;14.20;99.90;;;;;;5119825;27;20481;-61
2021/11/18 07:19:45;;;;;;;5.40;2.75;;;14.20;99.90;;;;;;5102979;27;20046;-62
2021/11/18 07:22:15;;;;;;;4.20;1.35;;;14.10;99.90;;;;;;5119594;27;20118;-61
2021/11/18 07:25:12;;;;;;;8.27;2.15;;;14.00;99.90;;;;;;5106113;27;20039;-61
2021/11/18 07:27:43;;;;;;;2.35;1.67;;;14.00;99.90;;;;;;5120025;27;20043;-61
2021/11/18 07:30:12;;;;;;;4.22;1.50;;;14.00;99.90;;;;;;5102805;27;20031;-61
2021/11/18 07:32:40;;;;;;;5.18;1.75;;;14.00;99.90;;;;;;5085763;27;20065;-61
2021/11/18 07:35:15;;;;;;;3.55;1.60;;;14.00;99.90;;;;;;5102558;27;20047;-61
2021/11/18 07:37:43;;;;;;;4.97;2.03;;;14.00;99.90;;;;;;5120000;27;20039;-61
2021/11/18 07:40:14;;;;;;;3.45;1.42;;;14.00;99.90;;;;;;5102864;27;20358;-61
2021/11/18 07:42:45;;;;;;;4.57;1.65;;;14.00;99.90;;;;;;5086099;27;20047;-61
2021/11/18 07:45:31;;;;;;;3.28;1.27;;;14.00;99.90;;;;;;5122419;27;20039;-61
2021/11/18 07:48:18;;;;;;;2.33;1.23;;;14.10;99.90;;;;;;5105403;27;20519;-61
2021/11/18 07:50:47;;;;;;;4.97;2.28;;;14.10;99.90;;;;;;5119416;27;20042;-61
2021/11/18 07:53:16;;;;;;;3.05;1.63;;;14.10;99.90;;;;;;5119591;27;20039;-61
2021/11/18 07:55:47;;;;;;;4.15;1.70;;;14.10;99.90;;;;;;5102119;27;20129;-61
2021/11/18 07:58:16;;;;;;;2.63;1.50;;;14.10;99.90;;;;;;5119288;27;20481;-61
2021/11/18 08:00:47;;;;;;;6.10;2.67;;;14.10;99.90;;;;;;5102093;27;20051;-61
2021/11/18 08:03:30;;;;;;;5.70;1.48;;;14.10;99.90;;;;;;5102308;27;20051;-61
2021/11/18 08:06:20;;;;;;;2.22;1.20;;;14.10;99.90;;;;;;5137270;27;20063;-61
2021/11/18 08:08:54;;;;;;;2.70;1.83;;;14.20;99.90;;;;;;5102246;27;20039;-61
2021/11/18 08:11:34;;;;;;;3.03;1.25;;;14.20;99.90;;;;;;5137691;27;20493;-61
2021/11/18 08:14:05;;;;;;;3.67;1.10;;;14.30;99.90;;;;;;5085490;27;20062;-61
2021/11/18 08:16:34;;;;;;;4.05;1.58;;;14.30;99.90;;;;;;5100414;27;20053;-61
2021/11/18 08:19:05;;;;;;;3.65;1.67;;;14.40;99.90;;;;;;5102712;27;20088;-61
2021/11/18 08:21:35;;;;;;;2.80;1.50;;;14.40;99.90;;;;;;5102060;27;20043;-61
2021/11/18 08:24:05;;;;;;;3.67;1.92;;;14.40;99.90;;;;;;5118739;27;20035;-61
2021/11/18 08:26:34;;;;;;;2.38;1.33;;;14.40;99.90;;;;;;5118791;27;20032;-61
2021/11/18 08:29:16;;;;;;;2.75;1.60;;;14.50;99.90;;;;;;5085963;27;20051;-61
2021/11/18 08:31:46;;;;;;;2.30;0.95;;;14.50;99.90;;;;;;5101675;27;20043;-61
2021/11/18 08:34:36;;;;;;;1.95;1.20;;;14.60;99.90;;;;;;5136223;27;20142;-62
2021/11/18 08:37:09;;;;;;;3.00;1.15;;;14.60;99.90;;;;;;5118424;27;20043;-61
2021/11/18 08:39:40;;;;;;;1.95;1.05;;;14.60;99.90;;;;;;5085098;27;20366;-61
2021/11/18 08:42:14;;;;;;;7.05;2.85;;;14.60;99.90;;;;;;5084909;27;20082;-61
2021/11/18 08:44:43;;;;;;;3.15;1.50;;;14.60;99.90;;;;;;5084674;27;20128;-61
2021/11/18 08:47:14;;;;;;;4.10;1.52;;;14.60;99.90;;;;;;5101698;27;20140;-61
2021/11/18 08:49:43;;;;;;;2.67;1.23;;;14.70;99.90;;;;;;5118255;27;20043;-61
2021/11/18 08:52:17;;;;;;;2.97;1.77;;;14.60;99.90;;;;;;5117843;27;20070;-61
2021/11/18 08:54:54;;;;;;;2.30;1.60;;;14.60;99.90;;;;;;5119377;27;20049;-61
2021/11/18 08:57:23;;;;;;;3.80;1.70;;;14.60;99.90;;;;;;5117684;27;20082;-61
2021/11/18 09:00:14;;;;;;;2.40;1.50;;;14.60;99.90;;;;;;5103153;27;20523;-61
2021/11/18 09:02:54;;;;;;;2.08;1.50;;;14.50;99.90;;;;;;5086022;27;20074;-61
2021/11/18 09:05:24;;;;;;;3.00;1.83;;;14.50;99.90;;;;;;5084286;27;20504;-61
2021/11/18 09:07:53;;;;;;;3.13;1.30;;;14.40;99.90;;;;;;5101100;27;20508;-61
2021/11/18 09:10:23;;;;;;;3.10;2.45;;;14.40;99.90;;;;;;5101099;27;20080;-60
2021/11/18 09:12:53;;;;;;;5.60;3.38;;;14.50;99.90;;;;;;5101337;27;20473;-61
2021/11/18 09:15:24;;;;;;;6.90;3.67;;;14.40;99.90;;;;;;5100509;27;20096;-60
2021/11/18 09:17:56;;;;;;;3.78;2.03;;;14.50;99.90;;;;;;5118263;27;20043;-61
2021/11/18 09:20:44;;;;;;;6.97;3.33;;;14.50;99.90;;;;;;5103675;27;20035;-61
2021/11/18 09:23:15;;;;;;;6.80;3.85;;;14.40;99.90;;;;;;5100606;27;20092;-61
2021/11/18 09:25:47;;;;;;;8.65;2.30;;;14.40;99.90;;;;;;5100026;27;20489;-60
2021/11/18 09:28:17;;;;;;;3.67;2.38;;;14.40;99.90;;;;;;5100696;27;20480;-61
2021/11/18 09:31:00;;;;;;;3.35;1.85;;;14.50;99.90;;;;;;5102122;27;20039;-61
2021/11/18 09:33:29;;;;;;;6.60;2.22;;;14.50;99.90;;;;;;5117367;27;20477;-61
2021/11/18 09:36:00;;;;;;;2.85;1.33;;;14.60;99.90;;;;;;5117132;27;20050;-61
2021/11/18 09:38:33;;;;;;;3.13;2.08;;;14.70;99.90;;;;;;5117190;27;20074;-61
2021/11/18 09:41:13;;;;;;;4.18;1.40;;;14.90;99.90;;;;;;5117452;27;20077;-62
2021/11/18 09:44:11;;;;;;;1.83;1.13;;;14.90;99.90;;;;;;5083685;27;20138;-61
2021/11/18 09:46:46;;;;;;;2.00;1.25;;;15.00;99.90;;;;;;5083720;27;20051;-61
2021/11/18 09:49:54;;;;;;;2.70;1.15;;;15.00;99.90;;;;;;5117473;27;20039;-60
2021/11/18 09:52:39;;;;;;;1.65;1.30;;;15.10;99.90;;;;;;5116825;27;20039;-61
2021/11/18 09:55:18;;;;;;;1.98;1.10;;;15.20;99.90;;;;;;5116956;27;20389;-61
2021/11/18 09:58:09;;;;;;;2.72;1.30;;;15.30;99.90;;;;;;5100836;27;20564;-61
2021/11/18 10:00:46;;;;;;;3.42;2.20;;;15.40;99.90;;;;;;5100419;27;20505;-61
2021/11/18 10:03:47;;;;;;;3.38;1.70;;;15.40;99.90;;;;;;5099337;27;20079;-63
2021/11/18 10:06:29;;;;;;;6.05;2.42;;;15.40;99.90;;;;;;5100014;27;20131;-61
2021/11/18 10:09:21;;;;;;;5.47;1.80;;;15.60;99.90;;;;;;5099805;27;20047;-61
2021/11/18 10:12:04;;;;;;;3.75;2.30;;;15.70;99.90;;;;;;5116656;27;20046;-61
2021/11/18 10:14:59;;;;;;;4.10;2.78;;;16.00;99.90;;;;;;5100095;27;20092;-61
2021/11/18 10:17:36;;;;;;;4.60;3.55;;;16.10;99.90;;;;;;5099702;27;20100;-61
2021/11/18 10:20:25;;;;;;;5.40;2.08;;;16.20;99.90;;;;;;5096777;27;20082;-62
2021/11/18 10:22:58;;;;;;;5.20;1.95;;;16.40;99.90;;;;;;5099855;27;20042;-61
2021/11/18 10:25:49;;;;;;;6.97;1.90;;;16.50;99.90;;;;;;5116535;27;20039;-61
2021/11/18 10:28:20;;;;;;;9.70;1.90;;;16.40;99.90;;;;;;5099445;27;20043;-61
2021/11/18 10:30:53;;;;;;;4.43;2.15;;;16.30;99.90;;;;;;5116352;28;20501;-61
2021/11/18 10:33:39;;;;;;;7.57;3.72;;;16.30;99.90;;;;;;5116408;27;20051;-61
2021/11/18 10:36:13;;;;;;;4.43;2.60;;;16.30;99.90;;;;;;5082802;27;20142;-61
2021/11/18 10:39:08;;;;;;;6.05;2.75;;;16.40;99.90;;;;;;5115689;27;20051;-61
2021/11/18 10:41:36;;;;;;;8.88;3.70;;;16.60;99.90;;;;;;5082533;28;20138;-61
2021/11/18 10:44:20;;;;;;;7.38;3.40;;;16.70;99.90;;;;;;5134587;27;20481;-62
2021/11/18 10:46:55;;;;;;;9.93;5.93;;;16.60;99.90;;;;;;5116501;28;20043;-61
2021/11/18 10:49:58;;;;;;;4.97;3.40;;;16.50;99.90;;;;;;5134478;28;20513;-61
2021/11/18 10:52:35;;;;;;;4.97;2.03;;;16.40;99.90;;;;;;5103793;28;20055;-62
2021/11/18 10:55:08;;;;;;;5.88;2.63;;;16.40;99.90;;;;;;5134416;28;20043;-61
2021/11/18 10:57:54;;;;;;;10.52;2.47;;;16.60;99.90;;;;;;5116187;28;20058;-61
2021/11/18 11:00:29;;;;;;;4.77;2.87;;;16.70;99.90;;;;;;5082373;28;20053;-61
2021/11/18 11:02:58;;;;;;;5.05;2.53;;;16.70;99.90;;;;;;5099469;28;20051;-61
2021/11/18 11:05:37;;;;;;;3.78;2.33;;;16.70;99.90;;;;;;5099046;28;20054;-61
2021/11/18 11:08:31;;;;;;;6.43;2.17;;;16.70;99.90;;;;;;5099091;28;20035;-61
2021/11/18 11:11:30;;;;;;;6.05;2.28;;;16.80;99.90;;;;;;5134173;28;20043;-61
2021/11/18 11:14:12;;;;;;;4.65;2.42;;;16.80;99.90;;;;;;5116017;28;20043;-61
2021/11/18 11:17:01;;;;;;;11.38;2.60;;;16.70;99.90;;;;;;5115862;28;20141;-61
2021/11/18 11:19:37;;;;;;;5.63;2.75;;;16.70;99.90;;;;;;5074227;28;20047;-61
2021/11/18 11:22:40;;;;;;;;;;;16.70;99.90;;;;;;5099558;28;20046;-62
2021/11/18 11:25:18;;;;;;;6.13;1.70;;;16.70;99.90;;;;;;5030719;28;20419;-61
2021/11/18 11:28:01;;;;;;;3.65;2.10;;;16.70;99.90;;;;;;5087033;28;20043;-62
2021/11/18 11:30:35;;;;;;;5.18;2.10;;;16.70;99.90;;;;;;5099008;28;20133;-61
2021/11/18 11:33:19;;;;;;;5.10;2.13;;;16.80;99.90;;;;;;5116021;28;20420;-61
2021/11/18 11:36:02;;;;;;;6.65;3.13;;;16.80;99.90;;;;;;5098809;28;20066;-61
2021/11/18 11:38:41;;;;;;;9.15;2.75;;;16.70;99.90;;;;;;5099205;28;20108;-61
2021/11/18 11:41:44;;;;;;;5.07;2.33;;;16.60;99.90;;;;;;5081777;28;20439;-61
2021/11/18 11:44:40;;;;;;;6.38;2.03;;;16.70;99.90;;;;;;5098948;28;20031;-62
2021/11/18 11:47:34;;;;;;;7.07;2.70;;;16.60;99.90;;;;;;5095908;28;20039;-62
2021/11/18 11:50:22;;;;;;;4.10;1.83;;;16.60;99.90;;;;;;5101059;28;20044;-61
2021/11/18 11:53:40;;;;;;;8.18;2.40;;;16.60;99.90;;;;;;5101991;27;20098;-62
2021/11/18 11:56:12;;;;;;;5.30;1.92;;;16.60;99.90;;;;;;5103517;27;20053;-61
2021/11/18 11:59:03;;;;;;;2.60;1.50;;;16.60;99.90;;;;;;5091782;28;20032;-62
2021/11/18 12:01:58;;;;;;;7.13;2.13;;;16.70;99.90;;;;;;5120813;27;20056;-67
2021/11/18 12:04:41;;;;;;;3.55;2.15;;;16.80;99.90;;;;;;5104541;27;20039;-61
2021/11/18 12:07:19;;;;;;;5.15;2.67;;;16.70;99.90;;;;;;5079046;28;20082;-62
2021/11/18 12:10:00;;;;;;;3.05;1.73;;;16.70;99.90;;;;;;5127629;27;20122;-61
2021/11/18 12:12:42;;;;;;;6.15;2.08;;;16.80;99.90;;;;;;5080153;27;20054;-61
2021/11/18 12:15:18;;;;;;;2.95;1.75;;;17.00;99.90;;;;;;5112249;27;20039;-61
2021/11/18 12:17:57;;;;;;;6.70;2.13;;;17.20;99.90;;;;;;5115628;27;20086;-63
2021/11/18 12:20:29;;;;;;;3.72;1.60;;;17.20;99.90;;;;;;5071503;27;20039;-61
2021/11/18 12:23:02;;;;;;;4.47;1.30;;;17.30;99.90;;;;;;5085294;27;20485;-62
2021/11/18 12:25:35;;;;;;;2.53;1.40;;;17.30;99.90;;;;;;5105001;28;20052;-61
2021/11/18 12:28:12;;;;;;;6.63;2.75;;;17.40;99.90;;;;;;5064481;28;20043;-65
2021/11/18 12:31:04;;;;;;;2.70;1.85;;;17.50;99.90;;;;;;5055779;27;20051;-62
2021/11/18 12:33:35;;;;;;;3.63;1.23;;;17.50;99.90;;;;;;5092355;27;20118;-61
2021/11/18 12:36:21;;;;;;;6.15;1.80;;;17.40;99.90;;;;;;5063771;28;20039;-61
2021/11/18 12:38:56;;;;;;;4.82;1.90;;;17.40;99.90;;;;;;5098422;28;20044;-63
2021/11/18 12:41:40;;;;;;;4.57;2.10;;;17.40;99.90;;;;;;5085620;28;20115;-61
2021/11/18 12:44:38;;;;;;;4.78;1.85;;;17.40;99.90;;;;;;5066590;28;20135;-61
2021/11/18 12:47:20;;;;;;;3.08;2.00;;;17.40;99.90;;;;;;5064462;28;20154;-61
2021/11/18 12:49:51;;;;;;;3.65;1.48;;;17.40;99.90;;;;;;5110986;27;20035;-61
2021/11/18 12:52:30;;;;;;;4.30;1.70;;;17.50;99.90;;;;;;5086475;28;20490;-62
2021/11/18 12:55:13;;;;;;;5.88;2.50;;;17.40;99.90;;;;;;5095385;27;20043;-61
2021/11/18 12:57:55;;;;;;;3.42;1.42;;;17.40;99.90;;;;;;5108576;28;20117;-62
2021/11/18 13:00:37;;;;;;;4.97;2.30;;;17.50;99.90;;;;;;5082260;28;20042;-61
2021/11/18 13:03:07;;;;;;;3.67;1.50;;;17.60;99.90;;;;;;5090385;27;20049;-62
2021/11/18 13:05:52;;;;;;;4.50;1.50;;;17.60;99.90;;;;;;5087228;27;20039;-61
2021/11/18 13:08:41;;;;;;;2.60;1.10;;;17.50;99.90;;;;;;5117236;27;20031;-61
2021/11/18 13:11:27;;;;;;;3.72;1.45;;;17.60;99.90;;;;;;5084551;27;20039;-61
2021/11/18 13:14:11;;;;;;;2.55;1.55;;;17.60;99.90;;;;;;5089258;28;20035;-61
2021/11/18 13:16:51;;;;;;;3.88;1.75;;;17.60;99.90;;;;;;5063920;28;20038;-62
2021/11/18 13:19:37;;;;;;;3.22;1.20;;;17.60;99.90;;;;;;5090193;28;20077;-62
2021/11/18 13:22:13;;;;;;;3.80;1.80;;;17.50;99.90;;;;;;5098385;28;20050;-64
2021/11/18 13:25:00;;;;;;;4.30;1.58;;;17.40;99.90;;;;;;5082380;27;20062;-65